FIN1772 LIPE-EFHK
Flight info
| Callsign | FIN1772 |
|---|---|
| Flight time | 2h 41m |
| Altitude | 38000 |
| Route | LUMAV L12 VIC DCT MOBDO DCT MALUG/N0437F370 DCT PINQI DCT APRAQ DCT HDO DCT POZUM DCT DOSAL DCT PENOR DCT ALAMI DCT OKEVU DCT EVADI Y370 DIVAM |
| Aircraft | A319/M-SDE1E2E3FGIJ1M1RWXY/LB1 |
Departure
| Time | 2026-05-04 18:44 |
|---|---|
| Airport | Bologna Guglielmo Marconi Airport (LIPE) |
Arrival
| Time | 2026-05-04 21:25 |
|---|---|
| Airport | Helsinki Vantaa Airport (EFHK) |
| Time | Latitude | Longitude | Altitude | Speed | Heading |
|---|---|---|---|---|---|
| 2026-05-04 17:51 | 44.53068 | 11.29318 | 100 ft | 0 kts | 206° |
| 2026-05-04 18:24 | 44.53074 | 11.29323 | 127 ft | 4 kts | 206° |
| 2026-05-04 18:25 | 44.53097 | 11.29338 | 124 ft | 2 kts | 206° |
| 2026-05-04 18:25 | 44.53114 | 11.29357 | 121 ft | 4 kts | 266° |
| 2026-05-04 18:25 | 44.53108 | 11.29390 | 122 ft | 3 kts | 296° |
| 2026-05-04 18:25 | 44.53096 | 11.29424 | 122 ft | 4 kts | 296° |
| 2026-05-04 18:26 | 44.53084 | 11.29457 | 122 ft | 4 kts | 296° |
| 2026-05-04 18:26 | 44.53073 | 11.29486 | 125 ft | 1 kts | 297° |
| 2026-05-04 18:31 | 44.53074 | 11.29485 | 125 ft | 1 kts | 297° |
| 2026-05-04 18:32 | 44.53081 | 11.29466 | 123 ft | 3 kts | 297° |
| 2026-05-04 18:32 | 44.53094 | 11.29430 | 123 ft | 5 kts | 297° |
| 2026-05-04 18:32 | 44.53113 | 11.29376 | 123 ft | 8 kts | 297° |
| 2026-05-04 18:32 | 44.53164 | 11.29358 | 127 ft | 9 kts | 338° |
| 2026-05-04 18:33 | 44.53198 | 11.29280 | 125 ft | 11 kts | 295° |
| 2026-05-04 18:33 | 44.53235 | 11.29180 | 124 ft | 12 kts | 296° |
| 2026-05-04 18:33 | 44.53275 | 11.29066 | 127 ft | 14 kts | 296° |
| 2026-05-04 18:33 | 44.53319 | 11.28943 | 126 ft | 15 kts | 297° |
| 2026-05-04 18:34 | 44.53366 | 11.28812 | 123 ft | 16 kts | 297° |
| 2026-05-04 18:34 | 44.53418 | 11.28670 | 125 ft | 17 kts | 296° |
| 2026-05-04 18:34 | 44.53472 | 11.28521 | 125 ft | 18 kts | 297° |
| 2026-05-04 18:34 | 44.53525 | 11.28373 | 124 ft | 13 kts | 298° |
| 2026-05-04 18:35 | 44.53567 | 11.28259 | 127 ft | 14 kts | 296° |
| 2026-05-04 18:35 | 44.53610 | 11.28135 | 126 ft | 15 kts | 297° |
| 2026-05-04 18:35 | 44.53657 | 11.28005 | 123 ft | 15 kts | 297° |
| 2026-05-04 18:35 | 44.53710 | 11.27861 | 124 ft | 18 kts | 297° |
| 2026-05-04 18:36 | 44.53768 | 11.27697 | 124 ft | 20 kts | 295° |
| 2026-05-04 18:36 | 44.53810 | 11.27580 | 124 ft | 10 kts | 297° |
| 2026-05-04 18:36 | 44.53845 | 11.27484 | 126 ft | 10 kts | 296° |
| 2026-05-04 18:36 | 44.53866 | 11.27427 | 125 ft | 2 kts | 296° |
| 2026-05-04 18:37 | 44.53866 | 11.27425 | 126 ft | 0 kts | 296° |
| 2026-05-04 18:40 | 44.53867 | 11.27424 | 126 ft | 1 kts | 296° |
| 2026-05-04 18:40 | 44.53875 | 11.27401 | 123 ft | 4 kts | 298° |
| 2026-05-04 18:41 | 44.53886 | 11.27373 | 124 ft | 0 kts | 298° |
| 2026-05-04 18:41 | 44.53887 | 11.27370 | 123 ft | 2 kts | 297° |
| 2026-05-04 18:41 | 44.53923 | 11.27321 | 126 ft | 9 kts | 325° |
| 2026-05-04 18:42 | 44.53980 | 11.27268 | 124 ft | 11 kts | 327° |
| 2026-05-04 18:42 | 44.54053 | 11.27212 | 126 ft | 13 kts | 348° |
| 2026-05-04 18:42 | 44.54118 | 11.27277 | 124 ft | 8 kts | 61° |
| 2026-05-04 18:42 | 44.54094 | 11.27339 | 126 ft | 8 kts | 118° |
| 2026-05-04 18:43 | 44.54057 | 11.27448 | 125 ft | 29 kts | 118° |
| 2026-05-04 18:43 | 44.53839 | 11.28044 | 125 ft | 104 kts | 116° |
| 2026-05-04 18:43 | 44.53420 | 11.29206 | 132 ft | 161 kts | 118° |
| 2026-05-04 18:43 | 44.52906 | 11.30637 | 600 ft | 169 kts | 118° |
| 2026-05-04 18:44 | 44.52634 | 11.32309 | 1162 ft | 186 kts | 90° |
| 2026-05-04 18:44 | 44.52840 | 11.33508 | 1554 ft | 195 kts | 70° |
| 2026-05-04 18:44 | 44.53836 | 11.35701 | 2409 ft | 204 kts | 45° |
| 2026-05-04 18:44 | 44.55072 | 11.36722 | 2884 ft | 217 kts | 8° |
| 2026-05-04 18:45 | 44.56574 | 11.36774 | 3532 ft | 220 kts | 0° |
| 2026-05-04 18:45 | 44.58121 | 11.37070 | 4268 ft | 222 kts | 13° |
| 2026-05-04 18:45 | 44.59576 | 11.37770 | 4966 ft | 225 kts | 24° |
| 2026-05-04 18:45 | 44.60955 | 11.38817 | 5654 ft | 226 kts | 32° |
| 2026-05-04 18:46 | 44.62322 | 11.39945 | 6383 ft | 229 kts | 32° |
| 2026-05-04 18:46 | 44.63709 | 11.41086 | 7180 ft | 231 kts | 32° |
| 2026-05-04 18:46 | 44.65087 | 11.42314 | 7877 ft | 240 kts | 40° |
| 2026-05-04 18:46 | 44.66411 | 11.43884 | 8270 ft | 264 kts | 42° |
| 2026-05-04 18:47 | 44.67876 | 11.45628 | 8714 ft | 287 kts | 42° |
| 2026-05-04 18:47 | 44.69435 | 11.47479 | 9456 ft | 297 kts | 42° |
| 2026-05-04 18:47 | 44.71033 | 11.49367 | 10274 ft | 306 kts | 42° |
| 2026-05-04 18:47 | 44.72729 | 11.51370 | 10627 ft | 330 kts | 42° |
| 2026-05-04 18:48 | 44.74526 | 11.53494 | 11198 ft | 342 kts | 41° |
| 2026-05-04 18:48 | 44.76370 | 11.55668 | 12000 ft | 347 kts | 41° |
| 2026-05-04 18:48 | 44.78236 | 11.57859 | 12870 ft | 350 kts | 41° |
| 2026-05-04 18:48 | 44.80257 | 11.59819 | 13709 ft | 355 kts | 30° |
| 2026-05-04 18:49 | 44.82504 | 11.61163 | 14452 ft | 359 kts | 17° |
| 2026-05-04 18:49 | 44.84971 | 11.61869 | 15159 ft | 363 kts | 5° |
| 2026-05-04 18:49 | 44.87506 | 11.62068 | 15881 ft | 366 kts | 2° |
| 2026-05-04 18:49 | 44.90067 | 11.62251 | 16600 ft | 369 kts | 2° |
| 2026-05-04 18:50 | 44.92648 | 11.62441 | 17313 ft | 372 kts | 1° |
| 2026-05-04 18:50 | 44.95212 | 11.62635 | 18014 ft | 375 kts | 1° |
| 2026-05-04 18:50 | 44.97838 | 11.62834 | 18684 ft | 378 kts | 1° |
| 2026-05-04 18:50 | 45.00476 | 11.63032 | 19279 ft | 381 kts | 1° |
| 2026-05-04 18:51 | 45.03153 | 11.63232 | 19882 ft | 385 kts | 1° |
| 2026-05-04 18:51 | 45.05848 | 11.63434 | 20467 ft | 389 kts | 1° |
| 2026-05-04 18:51 | 45.08521 | 11.63637 | 21053 ft | 392 kts | 1° |
| 2026-05-04 18:51 | 45.11265 | 11.63842 | 21642 ft | 396 kts | 1° |
| 2026-05-04 18:52 | 45.14027 | 11.64043 | 22219 ft | 399 kts | 1° |
| 2026-05-04 18:52 | 45.16819 | 11.64245 | 22791 ft | 403 kts | 1° |
| 2026-05-04 18:52 | 45.19629 | 11.64443 | 23350 ft | 407 kts | 1° |
| 2026-05-04 18:52 | 45.22482 | 11.64641 | 23857 ft | 411 kts | 1° |
| 2026-05-04 18:53 | 45.25357 | 11.64841 | 24325 ft | 414 kts | 1° |
| 2026-05-04 18:53 | 45.28246 | 11.65048 | 24794 ft | 417 kts | 1° |
| 2026-05-04 18:53 | 45.31122 | 11.65258 | 25234 ft | 420 kts | 1° |
| 2026-05-04 18:53 | 45.34056 | 11.65476 | 25691 ft | 422 kts | 1° |
| 2026-05-04 18:54 | 45.37002 | 11.65697 | 26138 ft | 425 kts | 1° |
| 2026-05-04 18:54 | 45.39976 | 11.65919 | 26571 ft | 428 kts | 1° |
| 2026-05-04 18:54 | 45.42924 | 11.66131 | 26982 ft | 431 kts | 1° |
| 2026-05-04 18:54 | 45.45928 | 11.66343 | 27400 ft | 434 kts | 1° |
| 2026-05-04 18:55 | 45.48963 | 11.66561 | 27815 ft | 437 kts | 1° |
| 2026-05-04 18:55 | 45.55085 | 11.67008 | 28642 ft | 443 kts | 1° |
| 2026-05-04 18:55 | 45.58182 | 11.67231 | 29041 ft | 446 kts | 1° |
| 2026-05-04 18:56 | 45.61297 | 11.67457 | 29430 ft | 449 kts | 2° |
| 2026-05-04 18:56 | 45.64389 | 11.67697 | 29802 ft | 452 kts | 3° |
| 2026-05-04 18:56 | 45.67544 | 11.68076 | 30171 ft | 456 kts | 5° |
| 2026-05-04 18:56 | 45.70705 | 11.68593 | 30488 ft | 459 kts | 6° |
| 2026-05-04 18:57 | 45.73881 | 11.69192 | 30808 ft | 461 kts | 7° |
| 2026-05-04 18:57 | 45.77075 | 11.69820 | 31135 ft | 463 kts | 6° |
| 2026-05-04 18:57 | 45.80243 | 11.70428 | 31457 ft | 465 kts | 6° |
| 2026-05-04 18:57 | 45.83469 | 11.71014 | 31789 ft | 467 kts | 5° |
| 2026-05-04 18:58 | 45.86700 | 11.71576 | 32215 ft | 467 kts | 5° |
| 2026-05-04 18:58 | 45.89937 | 11.72127 | 32681 ft | 465 kts | 5° |
| 2026-05-04 18:58 | 45.93146 | 11.72664 | 33132 ft | 464 kts | 4° |
| 2026-05-04 18:58 | 45.96357 | 11.73202 | 33628 ft | 462 kts | 4° |
| 2026-05-04 18:59 | 45.99509 | 11.73732 | 34104 ft | 460 kts | 4° |
| 2026-05-04 18:59 | 46.02693 | 11.74274 | 34549 ft | 458 kts | 4° |
| 2026-05-04 18:59 | 46.05852 | 11.74814 | 34978 ft | 456 kts | 4° |
| 2026-05-04 18:59 | 46.08989 | 11.75357 | 35386 ft | 454 kts | 4° |
| 2026-05-04 19:00 | 46.12139 | 11.75908 | 35795 ft | 453 kts | 4° |
| 2026-05-04 19:00 | 46.15214 | 11.76446 | 36153 ft | 451 kts | 4° |
| 2026-05-04 19:00 | 46.18334 | 11.76992 | 36499 ft | 450 kts | 4° |
| 2026-05-04 19:00 | 46.21441 | 11.77531 | 36794 ft | 449 kts | 4° |
| 2026-05-04 19:01 | 46.24542 | 11.78065 | 37054 ft | 449 kts | 4° |
| 2026-05-04 19:01 | 46.27652 | 11.78600 | 37107 ft | 448 kts | 4° |
| 2026-05-04 19:01 | 46.33835 | 11.79673 | 37089 ft | 448 kts | 4° |
| 2026-05-04 19:02 | 46.36849 | 11.80627 | 37086 ft | 452 kts | 16° |
| 2026-05-04 19:02 | 46.39749 | 11.82438 | 37082 ft | 455 kts | 27° |
| 2026-05-04 19:02 | 46.42407 | 11.85067 | 37076 ft | 459 kts | 39° |
| 2026-05-04 19:02 | 46.44633 | 11.88314 | 37080 ft | 461 kts | 50° |
| 2026-05-04 19:03 | 46.46439 | 11.92185 | 37081 ft | 463 kts | 61° |
| 2026-05-04 19:03 | 46.47951 | 11.96323 | 37089 ft | 463 kts | 62° |
| 2026-05-04 19:03 | 46.51125 | 12.04351 | 37093 ft | 460 kts | 49° |
| 2026-05-04 19:04 | 46.53422 | 12.07567 | 37109 ft | 456 kts | 33° |
| 2026-05-04 19:04 | 46.56136 | 12.09941 | 37111 ft | 454 kts | 26° |
| 2026-05-04 19:04 | 46.60755 | 12.13648 | 37127 ft | 454 kts | 26° |
| 2026-05-04 19:05 | 46.67194 | 12.18809 | 37137 ft | 454 kts | 27° |
| 2026-05-04 19:05 | 46.71808 | 12.22534 | 37135 ft | 455 kts | 27° |
| 2026-05-04 19:06 | 46.77357 | 12.27034 | 37138 ft | 455 kts | 27° |
| 2026-05-04 19:06 | 46.82863 | 12.31514 | 37130 ft | 455 kts | 27° |
| 2026-05-04 19:07 | 46.88359 | 12.36159 | 37105 ft | 455 kts | 29° |
| 2026-05-04 19:07 | 46.93797 | 12.40917 | 37091 ft | 455 kts | 29° |
| 2026-05-04 19:08 | 46.99199 | 12.45636 | 37063 ft | 455 kts | 29° |
| 2026-05-04 19:08 | 47.04654 | 12.50365 | 37037 ft | 454 kts | 29° |
| 2026-05-04 19:09 | 47.10102 | 12.55087 | 37033 ft | 454 kts | 29° |
| 2026-05-04 19:09 | 47.15520 | 12.59799 | 37028 ft | 454 kts | 29° |
| 2026-05-04 19:10 | 47.20038 | 12.63747 | 37024 ft | 454 kts | 29° |
| 2026-05-04 19:10 | 47.26377 | 12.69292 | 37004 ft | 455 kts | 29° |
| 2026-05-04 19:11 | 47.31831 | 12.74067 | 36993 ft | 455 kts | 29° |
| 2026-05-04 19:11 | 47.37270 | 12.78852 | 36980 ft | 455 kts | 29° |
| 2026-05-04 19:12 | 47.45414 | 12.86032 | 36959 ft | 456 kts | 29° |
| 2026-05-04 19:13 | 47.50857 | 12.90862 | 36945 ft | 456 kts | 30° |
| 2026-05-04 19:13 | 47.56271 | 12.95662 | 36920 ft | 455 kts | 30° |
| 2026-05-04 19:14 | 47.61718 | 13.00488 | 36928 ft | 455 kts | 30° |
| 2026-05-04 19:14 | 47.67144 | 13.05318 | 36916 ft | 454 kts | 30° |
| 2026-05-04 19:15 | 47.72567 | 13.10171 | 36924 ft | 454 kts | 30° |
| 2026-05-04 19:15 | 47.77953 | 13.14993 | 36915 ft | 454 kts | 30° |
| 2026-05-04 19:16 | 47.83382 | 13.19859 | 36913 ft | 454 kts | 30° |
| 2026-05-04 19:16 | 47.88792 | 13.24724 | 36923 ft | 454 kts | 30° |
| 2026-05-04 19:17 | 47.94173 | 13.29578 | 36919 ft | 455 kts | 30° |
| 2026-05-04 19:17 | 47.99597 | 13.34482 | 36904 ft | 455 kts | 30° |
| 2026-05-04 19:18 | 48.04999 | 13.39384 | 36906 ft | 455 kts | 30° |
| 2026-05-04 19:18 | 48.10417 | 13.44320 | 36896 ft | 455 kts | 30° |
| 2026-05-04 19:19 | 48.15819 | 13.49230 | 36906 ft | 454 kts | 30° |
| 2026-05-04 19:19 | 48.21202 | 13.54142 | 36894 ft | 454 kts | 30° |
| 2026-05-04 19:20 | 48.26599 | 13.59076 | 36906 ft | 454 kts | 30° |
| 2026-05-04 19:20 | 48.32006 | 13.64030 | 36896 ft | 454 kts | 30° |
| 2026-05-04 19:21 | 48.37383 | 13.68986 | 36902 ft | 454 kts | 30° |
| 2026-05-04 19:21 | 48.42738 | 13.73937 | 36908 ft | 454 kts | 30° |
| 2026-05-04 19:22 | 48.48119 | 13.78916 | 36911 ft | 454 kts | 30° |
| 2026-05-04 19:22 | 48.53521 | 13.83935 | 36913 ft | 454 kts | 30° |
| 2026-05-04 19:23 | 48.58864 | 13.88899 | 36919 ft | 454 kts | 30° |
| 2026-05-04 19:23 | 48.64249 | 13.93907 | 36926 ft | 454 kts | 30° |
| 2026-05-04 19:24 | 48.69941 | 13.97888 | 36930 ft | 450 kts | 13° |
| 2026-05-04 19:24 | 48.76089 | 13.99288 | 36931 ft | 447 kts | 2° |
| 2026-05-04 19:25 | 48.82294 | 14.00176 | 36937 ft | 447 kts | 3° |
| 2026-05-04 19:25 | 48.88448 | 14.01074 | 36939 ft | 447 kts | 3° |
| 2026-05-04 19:26 | 48.94662 | 14.01974 | 36936 ft | 447 kts | 2° |
| 2026-05-04 19:26 | 49.00867 | 14.02871 | 36938 ft | 447 kts | 2° |
| 2026-05-04 19:27 | 49.07033 | 14.03768 | 36938 ft | 447 kts | 2° |
| 2026-05-04 19:27 | 49.13232 | 14.04669 | 36941 ft | 447 kts | 2° |
| 2026-05-04 19:28 | 49.19438 | 14.05566 | 36942 ft | 447 kts | 2° |
| 2026-05-04 19:28 | 49.25604 | 14.06469 | 36939 ft | 447 kts | 2° |
| 2026-05-04 19:29 | 49.31809 | 14.07383 | 36938 ft | 447 kts | 2° |
| 2026-05-04 19:29 | 49.38025 | 14.08297 | 36941 ft | 447 kts | 2° |
| 2026-05-04 19:30 | 49.44185 | 14.09199 | 36946 ft | 447 kts | 2° |
| 2026-05-04 19:30 | 49.50399 | 14.10118 | 36942 ft | 447 kts | 2° |
| 2026-05-04 19:31 | 49.56596 | 14.11028 | 36945 ft | 447 kts | 2° |
| 2026-05-04 19:31 | 49.62764 | 14.11934 | 36945 ft | 448 kts | 2° |
| 2026-05-04 19:32 | 49.68980 | 14.12935 | 36947 ft | 448 kts | 4° |
| 2026-05-04 19:32 | 49.75149 | 14.14122 | 36948 ft | 449 kts | 4° |
| 2026-05-04 19:33 | 49.81360 | 14.15361 | 36948 ft | 449 kts | 4° |
| 2026-05-04 19:33 | 49.87549 | 14.16548 | 36947 ft | 449 kts | 4° |
| 2026-05-04 19:34 | 49.93731 | 14.17697 | 36948 ft | 449 kts | 4° |
| 2026-05-04 19:34 | 49.99939 | 14.18857 | 36947 ft | 449 kts | 4° |
| 2026-05-04 19:35 | 50.06143 | 14.20046 | 36949 ft | 449 kts | 4° |
| 2026-05-04 19:35 | 50.12348 | 14.21240 | 36948 ft | 449 kts | 4° |
| 2026-05-04 19:36 | 50.18505 | 14.22417 | 36948 ft | 449 kts | 4° |
| 2026-05-04 19:36 | 50.24710 | 14.23606 | 36950 ft | 448 kts | 4° |
| 2026-05-04 19:37 | 50.30917 | 14.24797 | 36951 ft | 448 kts | 4° |
| 2026-05-04 19:37 | 50.37110 | 14.25991 | 36953 ft | 448 kts | 4° |
| 2026-05-04 19:38 | 50.43288 | 14.27189 | 36956 ft | 448 kts | 4° |
| 2026-05-04 19:38 | 50.49485 | 14.28391 | 36956 ft | 448 kts | 4° |
| 2026-05-04 19:39 | 50.55648 | 14.29587 | 36963 ft | 448 kts | 4° |
| 2026-05-04 19:39 | 50.61845 | 14.30797 | 36963 ft | 448 kts | 4° |
| 2026-05-04 19:40 | 50.68014 | 14.32008 | 36967 ft | 448 kts | 4° |
| 2026-05-04 19:40 | 50.74214 | 14.33217 | 36966 ft | 448 kts | 3° |
| 2026-05-04 19:41 | 50.80412 | 14.34429 | 36966 ft | 448 kts | 4° |
| 2026-05-04 19:41 | 50.86577 | 14.35655 | 36959 ft | 448 kts | 4° |
| 2026-05-04 19:42 | 50.92774 | 14.36927 | 36968 ft | 449 kts | 7° |
| 2026-05-04 19:42 | 50.98871 | 14.39237 | 36969 ft | 451 kts | 11° |
| 2026-05-04 19:43 | 51.04932 | 14.41623 | 36969 ft | 451 kts | 10° |
| 2026-05-04 19:43 | 51.11021 | 14.44003 | 36970 ft | 450 kts | 10° |
| 2026-05-04 19:44 | 51.17110 | 14.46400 | 36966 ft | 450 kts | 10° |
| 2026-05-04 19:44 | 51.23207 | 14.48813 | 36968 ft | 451 kts | 10° |
| 2026-05-04 19:45 | 51.29262 | 14.51204 | 36968 ft | 451 kts | 10° |
| 2026-05-04 19:45 | 51.35355 | 14.53618 | 36965 ft | 450 kts | 10° |
| 2026-05-04 19:46 | 51.41460 | 14.56049 | 36963 ft | 450 kts | 10° |
| 2026-05-04 19:46 | 51.47550 | 14.58492 | 36962 ft | 451 kts | 10° |
| 2026-05-04 19:47 | 51.53638 | 14.60932 | 36963 ft | 451 kts | 10° |
| 2026-05-04 19:47 | 51.59687 | 14.63359 | 36963 ft | 451 kts | 10° |
| 2026-05-04 19:48 | 51.65785 | 14.65806 | 36961 ft | 451 kts | 10° |
| 2026-05-04 19:48 | 51.71842 | 14.68242 | 36961 ft | 451 kts | 10° |
| 2026-05-04 19:49 | 51.77956 | 14.70728 | 36961 ft | 451 kts | 10° |
| 2026-05-04 19:49 | 51.84021 | 14.73204 | 36962 ft | 451 kts | 10° |
| 2026-05-04 19:50 | 51.90126 | 14.75708 | 36964 ft | 451 kts | 10° |
| 2026-05-04 19:50 | 51.96187 | 14.78201 | 36962 ft | 451 kts | 10° |
| 2026-05-04 19:51 | 52.02276 | 14.80711 | 36963 ft | 451 kts | 10° |
| 2026-05-04 19:51 | 52.08365 | 14.83223 | 36962 ft | 451 kts | 10° |
| 2026-05-04 19:52 | 52.14456 | 14.85734 | 36963 ft | 451 kts | 9° |
| 2026-05-04 19:52 | 52.20510 | 14.88232 | 36957 ft | 451 kts | 10° |
| 2026-05-04 19:53 | 52.26607 | 14.90760 | 36959 ft | 451 kts | 10° |
| 2026-05-04 19:53 | 52.31681 | 14.92884 | 36961 ft | 452 kts | 10° |
| 2026-05-04 19:54 | 52.38773 | 14.95860 | 36961 ft | 452 kts | 10° |
| 2026-05-04 19:54 | 52.43839 | 14.97979 | 36962 ft | 453 kts | 9° |
| 2026-05-04 19:55 | 52.49970 | 15.00552 | 36961 ft | 454 kts | 10° |
| 2026-05-04 19:55 | 52.56062 | 15.03129 | 36960 ft | 454 kts | 10° |
| 2026-05-04 19:56 | 52.62185 | 15.05709 | 36958 ft | 454 kts | 10° |
| 2026-05-04 19:56 | 52.68312 | 15.08306 | 36960 ft | 454 kts | 10° |
| 2026-05-04 19:57 | 52.74436 | 15.10911 | 36958 ft | 454 kts | 10° |
| 2026-05-04 19:57 | 52.80515 | 15.13507 | 36958 ft | 454 kts | 10° |
| 2026-05-04 19:58 | 52.86634 | 15.16121 | 36961 ft | 453 kts | 9° |
| 2026-05-04 19:58 | 52.92747 | 15.18739 | 36967 ft | 453 kts | 9° |
| 2026-05-04 19:59 | 52.98734 | 15.21965 | 36969 ft | 458 kts | 18° |
| 2026-05-04 19:59 | 53.04625 | 15.26070 | 36962 ft | 459 kts | 18° |
| 2026-05-04 20:00 | 53.10508 | 15.30182 | 36971 ft | 458 kts | 18° |
| 2026-05-04 20:00 | 53.16398 | 15.34301 | 36982 ft | 458 kts | 18° |
| 2026-05-04 20:01 | 53.22248 | 15.38416 | 36975 ft | 458 kts | 18° |
| 2026-05-04 20:01 | 53.28119 | 15.42559 | 36977 ft | 458 kts | 18° |
| 2026-05-04 20:02 | 53.34009 | 15.46716 | 36981 ft | 458 kts | 18° |
| 2026-05-04 20:02 | 53.39877 | 15.50872 | 36983 ft | 457 kts | 18° |
| 2026-05-04 20:03 | 53.45724 | 15.54950 | 36986 ft | 457 kts | 18° |
| 2026-05-04 20:03 | 53.51633 | 15.59054 | 36988 ft | 458 kts | 18° |
| 2026-05-04 20:04 | 53.57482 | 15.63145 | 36987 ft | 458 kts | 18° |
| 2026-05-04 20:04 | 53.63378 | 15.67286 | 36991 ft | 458 kts | 18° |
| 2026-05-04 20:05 | 53.69265 | 15.71430 | 36989 ft | 458 kts | 18° |
| 2026-05-04 20:05 | 53.75132 | 15.75573 | 36992 ft | 459 kts | 18° |
| 2026-05-04 20:06 | 53.81026 | 15.79761 | 36990 ft | 459 kts | 18° |
| 2026-05-04 20:06 | 53.86918 | 15.83955 | 36986 ft | 459 kts | 18° |
| 2026-05-04 20:07 | 53.92819 | 15.88166 | 36988 ft | 459 kts | 18° |
| 2026-05-04 20:07 | 53.98681 | 15.92358 | 36986 ft | 459 kts | 18° |
| 2026-05-04 20:08 | 54.04584 | 15.96582 | 36987 ft | 460 kts | 18° |
| 2026-05-04 20:08 | 54.10485 | 16.00835 | 36986 ft | 460 kts | 18° |
| 2026-05-04 20:09 | 54.16362 | 16.05078 | 36980 ft | 461 kts | 18° |
| 2026-05-04 20:09 | 54.22264 | 16.09352 | 36992 ft | 461 kts | 18° |
| 2026-05-04 20:10 | 54.28180 | 16.13663 | 36982 ft | 462 kts | 18° |
| 2026-05-04 20:10 | 54.34116 | 16.17999 | 36986 ft | 463 kts | 18° |
| 2026-05-04 20:11 | 54.40017 | 16.22319 | 36984 ft | 463 kts | 18° |
| 2026-05-04 20:11 | 54.45962 | 16.26683 | 36984 ft | 464 kts | 18° |
| 2026-05-04 20:12 | 54.51878 | 16.31016 | 36979 ft | 464 kts | 18° |
| 2026-05-04 20:12 | 54.57824 | 16.35395 | 36980 ft | 465 kts | 18° |
| 2026-05-04 20:13 | 54.63780 | 16.39820 | 36977 ft | 465 kts | 18° |
| 2026-05-04 20:13 | 54.69716 | 16.44232 | 36973 ft | 466 kts | 18° |
| 2026-05-04 20:14 | 54.75670 | 16.48676 | 36973 ft | 466 kts | 18° |
| 2026-05-04 20:14 | 54.81642 | 16.53143 | 36968 ft | 466 kts | 18° |
| 2026-05-04 20:15 | 54.87572 | 16.57580 | 36966 ft | 467 kts | 18° |
| 2026-05-04 20:15 | 54.93546 | 16.62068 | 36965 ft | 467 kts | 18° |
| 2026-05-04 20:16 | 54.99486 | 16.66556 | 36958 ft | 467 kts | 19° |
| 2026-05-04 20:16 | 55.05451 | 16.71089 | 36960 ft | 467 kts | 19° |
| 2026-05-04 20:17 | 55.11410 | 16.75609 | 36957 ft | 466 kts | 18° |
| 2026-05-04 20:17 | 55.17345 | 16.80115 | 36955 ft | 467 kts | 19° |
| 2026-05-04 20:18 | 55.23308 | 16.84683 | 36951 ft | 466 kts | 19° |
| 2026-05-04 20:18 | 55.29219 | 16.89237 | 36947 ft | 466 kts | 19° |
| 2026-05-04 20:19 | 55.35168 | 16.93818 | 36945 ft | 466 kts | 19° |
| 2026-05-04 20:19 | 55.41074 | 16.98385 | 36939 ft | 465 kts | 19° |
| 2026-05-04 20:20 | 55.47015 | 17.02986 | 36935 ft | 465 kts | 19° |
| 2026-05-04 20:20 | 55.52930 | 17.07585 | 36931 ft | 464 kts | 19° |
| 2026-05-04 20:21 | 55.58823 | 17.12187 | 36928 ft | 464 kts | 19° |
| 2026-05-04 20:21 | 55.67518 | 17.19759 | 36925 ft | 466 kts | 25° |
| 2026-05-04 20:22 | 55.73177 | 17.25376 | 36922 ft | 466 kts | 25° |
| 2026-05-04 20:22 | 55.78804 | 17.30978 | 36917 ft | 465 kts | 25° |
| 2026-05-04 20:23 | 55.84475 | 17.36632 | 36913 ft | 465 kts | 25° |
| 2026-05-04 20:23 | 55.90085 | 17.42251 | 36910 ft | 465 kts | 25° |
| 2026-05-04 20:24 | 55.95725 | 17.47922 | 36907 ft | 464 kts | 25° |
| 2026-05-04 20:24 | 56.01355 | 17.53608 | 36900 ft | 464 kts | 25° |
| 2026-05-04 20:25 | 56.06949 | 17.59272 | 36903 ft | 464 kts | 25° |
| 2026-05-04 20:25 | 56.12570 | 17.64966 | 36887 ft | 464 kts | 25° |
| 2026-05-04 20:26 | 56.18185 | 17.70689 | 36893 ft | 463 kts | 25° |
| 2026-05-04 20:26 | 56.23764 | 17.76398 | 36889 ft | 463 kts | 25° |
| 2026-05-04 20:27 | 56.29376 | 17.82153 | 36883 ft | 463 kts | 25° |
| 2026-05-04 20:27 | 56.34982 | 17.87927 | 36877 ft | 463 kts | 25° |
| 2026-05-04 20:28 | 56.40550 | 17.93682 | 36877 ft | 463 kts | 25° |
| 2026-05-04 20:28 | 56.46152 | 17.99488 | 36876 ft | 463 kts | 25° |
| 2026-05-04 20:29 | 56.51742 | 18.05291 | 36874 ft | 463 kts | 25° |
| 2026-05-04 20:29 | 56.57291 | 18.11088 | 36866 ft | 463 kts | 26° |
| 2026-05-04 20:30 | 56.62883 | 18.16955 | 36866 ft | 463 kts | 26° |
| 2026-05-04 20:30 | 56.68440 | 18.22784 | 36862 ft | 463 kts | 26° |
| 2026-05-04 20:31 | 56.74014 | 18.28669 | 36856 ft | 463 kts | 26° |
| 2026-05-04 20:31 | 56.79594 | 18.34586 | 36855 ft | 463 kts | 26° |
| 2026-05-04 20:32 | 56.85136 | 18.40472 | 36851 ft | 463 kts | 26° |
| 2026-05-04 20:32 | 56.90706 | 18.46398 | 36852 ft | 463 kts | 26° |
| 2026-05-04 20:33 | 56.96293 | 18.52355 | 36841 ft | 463 kts | 26° |
| 2026-05-04 20:33 | 57.01825 | 18.58298 | 36844 ft | 464 kts | 26° |
| 2026-05-04 20:34 | 57.07397 | 18.64302 | 36836 ft | 464 kts | 26° |
| 2026-05-04 20:34 | 57.12983 | 18.70344 | 36838 ft | 464 kts | 26° |
| 2026-05-04 20:35 | 57.18521 | 18.76353 | 36833 ft | 464 kts | 26° |
| 2026-05-04 20:35 | 57.24102 | 18.82423 | 36831 ft | 465 kts | 26° |
| 2026-05-04 20:36 | 57.29682 | 18.88512 | 36828 ft | 465 kts | 26° |
| 2026-05-04 20:36 | 57.35215 | 18.94576 | 36822 ft | 465 kts | 26° |
| 2026-05-04 20:37 | 57.40793 | 19.00714 | 36824 ft | 465 kts | 26° |
| 2026-05-04 20:37 | 57.46370 | 19.06871 | 36819 ft | 465 kts | 26° |
| 2026-05-04 20:38 | 57.51903 | 19.13004 | 36811 ft | 466 kts | 26° |
| 2026-05-04 20:38 | 57.57477 | 19.19204 | 36808 ft | 466 kts | 26° |
| 2026-05-04 20:39 | 57.63051 | 19.25419 | 36811 ft | 466 kts | 26° |
| 2026-05-04 20:39 | 57.68590 | 19.31608 | 36808 ft | 466 kts | 26° |
| 2026-05-04 20:40 | 57.74154 | 19.37864 | 36810 ft | 466 kts | 26° |
| 2026-05-04 20:40 | 57.79727 | 19.44157 | 36801 ft | 466 kts | 26° |
| 2026-05-04 20:41 | 57.85254 | 19.50419 | 36805 ft | 467 kts | 26° |
| 2026-05-04 20:41 | 57.90824 | 19.56753 | 36804 ft | 467 kts | 26° |
| 2026-05-04 20:42 | 57.95464 | 19.62037 | 36798 ft | 467 kts | 26° |
| 2026-05-04 20:42 | 58.01939 | 19.69444 | 36795 ft | 468 kts | 26° |
| 2026-05-04 20:43 | 58.06564 | 19.74756 | 36797 ft | 468 kts | 26° |
| 2026-05-04 20:43 | 58.12128 | 19.81167 | 36790 ft | 468 kts | 26° |
| 2026-05-04 20:44 | 58.17704 | 19.87626 | 36794 ft | 468 kts | 26° |
| 2026-05-04 20:44 | 58.23255 | 19.94090 | 36791 ft | 468 kts | 26° |
| 2026-05-04 20:45 | 58.28795 | 20.00540 | 36786 ft | 469 kts | 26° |
| 2026-05-04 20:45 | 58.34368 | 20.07030 | 36785 ft | 469 kts | 26° |
| 2026-05-04 20:46 | 58.39902 | 20.13520 | 36781 ft | 469 kts | 26° |
| 2026-05-04 20:46 | 58.45475 | 20.20105 | 36777 ft | 470 kts | 26° |
| 2026-05-04 20:47 | 58.51007 | 20.26662 | 36774 ft | 470 kts | 26° |
| 2026-05-04 20:47 | 58.56578 | 20.33265 | 36772 ft | 470 kts | 26° |
| 2026-05-04 20:48 | 58.62150 | 20.39903 | 36769 ft | 470 kts | 27° |
| 2026-05-04 20:48 | 58.67686 | 20.46525 | 36771 ft | 471 kts | 27° |
| 2026-05-04 20:49 | 58.73259 | 20.53224 | 36771 ft | 471 kts | 27° |
| 2026-05-04 20:49 | 58.78812 | 20.59945 | 36760 ft | 471 kts | 27° |
| 2026-05-04 20:50 | 58.84354 | 20.66637 | 36761 ft | 472 kts | 27° |
| 2026-05-04 20:50 | 58.89919 | 20.73377 | 36759 ft | 472 kts | 27° |
| 2026-05-04 20:51 | 58.95489 | 20.80159 | 36755 ft | 472 kts | 27° |
| 2026-05-04 20:51 | 59.01013 | 20.86964 | 36747 ft | 474 kts | 29° |
| 2026-05-04 20:52 | 59.05899 | 20.95719 | 36746 ft | 485 kts | 48° |
| 2026-05-04 20:52 | 59.09593 | 21.06821 | 36745 ft | 489 kts | 56° |
| 2026-05-04 20:53 | 59.13143 | 21.18160 | 36741 ft | 490 kts | 56° |
| 2026-05-04 20:53 | 59.16673 | 21.29432 | 36740 ft | 490 kts | 56° |
| 2026-05-04 20:54 | 59.20216 | 21.40787 | 36741 ft | 490 kts | 56° |
| 2026-05-04 20:54 | 59.23747 | 21.52222 | 36737 ft | 490 kts | 56° |
| 2026-05-04 20:55 | 59.27244 | 21.63614 | 36737 ft | 491 kts | 56° |
| 2026-05-04 20:55 | 59.30732 | 21.75057 | 36739 ft | 491 kts | 57° |
| 2026-05-04 20:56 | 59.34225 | 21.86575 | 36736 ft | 491 kts | 56° |
| 2026-05-04 20:56 | 59.37728 | 21.98117 | 36738 ft | 492 kts | 57° |
| 2026-05-04 20:57 | 59.41210 | 22.09605 | 36739 ft | 492 kts | 57° |
| 2026-05-04 20:57 | 59.44724 | 22.21229 | 35707 ft | 500 kts | 56° |
| 2026-05-04 20:58 | 59.46503 | 22.27154 | 34575 ft | 511 kts | 56° |
| 2026-05-04 20:58 | 59.48297 | 22.33179 | 33920 ft | 510 kts | 56° |
| 2026-05-04 20:58 | 59.50080 | 22.39209 | 33254 ft | 507 kts | 56° |
| 2026-05-04 20:58 | 59.51847 | 22.45197 | 32728 ft | 499 kts | 56° |
| 2026-05-04 20:59 | 59.53580 | 22.51074 | 32170 ft | 494 kts | 56° |
| 2026-05-04 20:59 | 59.55275 | 22.56838 | 31625 ft | 488 kts | 56° |
| 2026-05-04 20:59 | 59.56969 | 22.62609 | 31090 ft | 483 kts | 56° |
| 2026-05-04 20:59 | 59.58641 | 22.68323 | 30563 ft | 479 kts | 56° |
| 2026-05-04 21:00 | 59.60303 | 22.74011 | 30035 ft | 475 kts | 56° |
| 2026-05-04 21:00 | 59.61953 | 22.79660 | 29463 ft | 471 kts | 56° |
| 2026-05-04 21:00 | 59.63561 | 22.85162 | 28984 ft | 464 kts | 56° |
| 2026-05-04 21:00 | 59.65164 | 22.90674 | 28488 ft | 459 kts | 56° |
| 2026-05-04 21:01 | 59.66745 | 22.96150 | 28014 ft | 453 kts | 56° |
| 2026-05-04 21:01 | 59.68304 | 23.01544 | 27549 ft | 449 kts | 56° |
| 2026-05-04 21:01 | 59.69852 | 23.06893 | 27096 ft | 445 kts | 56° |
| 2026-05-04 21:01 | 59.71360 | 23.12110 | 26660 ft | 441 kts | 56° |
| 2026-05-04 21:02 | 59.72880 | 23.17374 | 26226 ft | 438 kts | 56° |
| 2026-05-04 21:02 | 59.74381 | 23.22602 | 25799 ft | 435 kts | 56° |
| 2026-05-04 21:02 | 59.75870 | 23.27813 | 25362 ft | 432 kts | 56° |
| 2026-05-04 21:02 | 59.77351 | 23.33009 | 24902 ft | 429 kts | 56° |
| 2026-05-04 21:03 | 59.78822 | 23.38168 | 24452 ft | 427 kts | 56° |
| 2026-05-04 21:03 | 59.80263 | 23.43225 | 23991 ft | 425 kts | 56° |
| 2026-05-04 21:03 | 59.81719 | 23.48339 | 23525 ft | 423 kts | 56° |
| 2026-05-04 21:03 | 59.83166 | 23.53441 | 22997 ft | 422 kts | 56° |
| 2026-05-04 21:04 | 59.84598 | 23.58510 | 22514 ft | 418 kts | 57° |
| 2026-05-04 21:04 | 59.86015 | 23.63538 | 22047 ft | 414 kts | 57° |
| 2026-05-04 21:04 | 59.87416 | 23.68521 | 21579 ft | 411 kts | 57° |
| 2026-05-04 21:04 | 59.88800 | 23.73473 | 21236 ft | 405 kts | 57° |
| 2026-05-04 21:05 | 59.90156 | 23.78341 | 20872 ft | 399 kts | 57° |
| 2026-05-04 21:05 | 59.91441 | 23.83141 | 20221 ft | 395 kts | 63° |
| 2026-05-04 21:05 | 59.92504 | 23.88140 | 19785 ft | 385 kts | 65° |
| 2026-05-04 21:05 | 59.93540 | 23.93017 | 19363 ft | 376 kts | 65° |
| 2026-05-04 21:06 | 59.94555 | 23.97770 | 18946 ft | 367 kts | 65° |
| 2026-05-04 21:06 | 59.95534 | 24.02348 | 18542 ft | 359 kts | 65° |
| 2026-05-04 21:06 | 59.96510 | 24.06920 | 18152 ft | 357 kts | 65° |
| 2026-05-04 21:06 | 59.97479 | 24.11488 | 17725 ft | 354 kts | 65° |
| 2026-05-04 21:07 | 59.98423 | 24.15960 | 17343 ft | 352 kts | 66° |
| 2026-05-04 21:07 | 59.99369 | 24.20454 | 16959 ft | 350 kts | 66° |
| 2026-05-04 21:07 | 60.00313 | 24.24953 | 16576 ft | 348 kts | 66° |
| 2026-05-04 21:07 | 60.01240 | 24.29387 | 16206 ft | 346 kts | 66° |
| 2026-05-04 21:08 | 60.02168 | 24.33835 | 15825 ft | 343 kts | 66° |
| 2026-05-04 21:08 | 60.03089 | 24.38245 | 15453 ft | 341 kts | 66° |
| 2026-05-04 21:08 | 60.03986 | 24.42550 | 15094 ft | 339 kts | 66° |
| 2026-05-04 21:08 | 60.04891 | 24.46906 | 14729 ft | 336 kts | 66° |
| 2026-05-04 21:09 | 60.05784 | 24.51213 | 14362 ft | 334 kts | 66° |
| 2026-05-04 21:09 | 60.06671 | 24.55510 | 13993 ft | 332 kts | 66° |
| 2026-05-04 21:09 | 60.07550 | 24.59774 | 13629 ft | 330 kts | 66° |
| 2026-05-04 21:09 | 60.08423 | 24.64028 | 13235 ft | 328 kts | 66° |
| 2026-05-04 21:10 | 60.09274 | 24.68178 | 12877 ft | 325 kts | 66° |
| 2026-05-04 21:10 | 60.10283 | 24.72188 | 12507 ft | 320 kts | 54° |
| 2026-05-04 21:10 | 60.11628 | 24.75687 | 12145 ft | 313 kts | 43° |
| 2026-05-04 21:10 | 60.13109 | 24.78867 | 11790 ft | 311 kts | 43° |
| 2026-05-04 21:11 | 60.14573 | 24.82043 | 11434 ft | 308 kts | 43° |
| 2026-05-04 21:11 | 60.16011 | 24.85190 | 11068 ft | 305 kts | 43° |
| 2026-05-04 21:11 | 60.17438 | 24.88319 | 10712 ft | 302 kts | 43° |
| 2026-05-04 21:11 | 60.18832 | 24.91376 | 10354 ft | 298 kts | 43° |
| 2026-05-04 21:12 | 60.20228 | 24.94444 | 9993 ft | 295 kts | 43° |
| 2026-05-04 21:12 | 60.21611 | 24.97488 | 9637 ft | 292 kts | 43° |
| 2026-05-04 21:12 | 60.22972 | 25.00484 | 9242 ft | 289 kts | 43° |
| 2026-05-04 21:12 | 60.24326 | 25.03464 | 8873 ft | 287 kts | 43° |
| 2026-05-04 21:13 | 60.25753 | 25.06216 | 8507 ft | 281 kts | 32° |
| 2026-05-04 21:13 | 60.27393 | 25.08253 | 8130 ft | 273 kts | 19° |
| 2026-05-04 21:13 | 60.29146 | 25.09515 | 7764 ft | 265 kts | 7° |
| 2026-05-04 21:13 | 60.30911 | 25.10364 | 7396 ft | 263 kts | 7° |
| 2026-05-04 21:14 | 60.32716 | 25.11254 | 7021 ft | 274 kts | 8° |
| 2026-05-04 21:14 | 60.34608 | 25.11761 | 6623 ft | 273 kts | 354° |
| 2026-05-04 21:14 | 60.36466 | 25.11314 | 6245 ft | 264 kts | 340° |
| 2026-05-04 21:14 | 60.38170 | 25.09987 | 6039 ft | 261 kts | 328° |
| 2026-05-04 21:15 | 60.39783 | 25.08334 | 5658 ft | 259 kts | 328° |
| 2026-05-04 21:15 | 60.41373 | 25.06709 | 5259 ft | 257 kts | 328° |
| 2026-05-04 21:15 | 60.42968 | 25.05081 | 4958 ft | 256 kts | 328° |
| 2026-05-04 21:15 | 60.44554 | 25.03458 | 4856 ft | 256 kts | 328° |
| 2026-05-04 21:16 | 60.46111 | 25.01866 | 4749 ft | 240 kts | 328° |
| 2026-05-04 21:16 | 60.47585 | 25.00360 | 4643 ft | 235 kts | 328° |
| 2026-05-04 21:16 | 60.49018 | 24.98886 | 4535 ft | 233 kts | 328° |
| 2026-05-04 21:16 | 60.50464 | 24.97405 | 4456 ft | 232 kts | 329° |
| 2026-05-04 21:17 | 60.51889 | 24.95974 | 4248 ft | 220 kts | 329° |
| 2026-05-04 21:17 | 60.53225 | 24.94645 | 3944 ft | 210 kts | 328° |
| 2026-05-04 21:17 | 60.54533 | 24.93335 | 3508 ft | 209 kts | 328° |
| 2026-05-04 21:17 | 60.55778 | 24.91877 | 3054 ft | 203 kts | 314° |
| 2026-05-04 21:18 | 60.56560 | 24.89605 | 2841 ft | 190 kts | 288° |
| 2026-05-04 21:18 | 60.56727 | 24.87075 | 2691 ft | 174 kts | 264° |
| 2026-05-04 21:18 | 60.56371 | 24.84867 | 2566 ft | 165 kts | 243° |
| 2026-05-04 21:18 | 60.55589 | 24.83141 | 2287 ft | 170 kts | 221° |
| 2026-05-04 21:19 | 60.54480 | 24.82238 | 2051 ft | 177 kts | 195° |
| 2026-05-04 21:19 | 60.53235 | 24.82281 | 1979 ft | 176 kts | 182° |
| 2026-05-04 21:19 | 60.52050 | 24.82472 | 1987 ft | 167 kts | 183° |
| 2026-05-04 21:19 | 60.50898 | 24.82651 | 1989 ft | 165 kts | 184° |
| 2026-05-04 21:20 | 60.49768 | 24.82826 | 1996 ft | 164 kts | 183° |
| 2026-05-04 21:20 | 60.48628 | 24.83004 | 2005 ft | 164 kts | 183° |
| 2026-05-04 21:20 | 60.47490 | 24.83180 | 1991 ft | 164 kts | 183° |
| 2026-05-04 21:20 | 60.46350 | 24.83355 | 1995 ft | 164 kts | 183° |
| 2026-05-04 21:21 | 60.45225 | 24.83944 | 2006 ft | 172 kts | 160° |
| 2026-05-04 21:21 | 60.44159 | 24.85012 | 2005 ft | 171 kts | 160° |
| 2026-05-04 21:21 | 60.43131 | 24.86057 | 2007 ft | 153 kts | 160° |
| 2026-05-04 21:21 | 60.42239 | 24.86975 | 1988 ft | 141 kts | 161° |
| 2026-05-04 21:22 | 60.41375 | 24.87860 | 1976 ft | 137 kts | 161° |
| 2026-05-04 21:22 | 60.40531 | 24.88727 | 1863 ft | 135 kts | 162° |
| 2026-05-04 21:22 | 60.39700 | 24.89583 | 1707 ft | 133 kts | 162° |
| 2026-05-04 21:22 | 60.38878 | 24.90428 | 1535 ft | 132 kts | 162° |
| 2026-05-04 21:23 | 60.38064 | 24.91267 | 1366 ft | 131 kts | 162° |
| 2026-05-04 21:23 | 60.37253 | 24.92102 | 1166 ft | 130 kts | 161° |
| 2026-05-04 21:23 | 60.36453 | 24.92926 | 985 ft | 129 kts | 159° |
| 2026-05-04 21:23 | 60.35655 | 24.93746 | 800 ft | 128 kts | 158° |
| 2026-05-04 21:24 | 60.34882 | 24.94542 | 632 ft | 125 kts | 159° |
| 2026-05-04 21:24 | 60.34114 | 24.95331 | 456 ft | 123 kts | 158° |
| 2026-05-04 21:24 | 60.33357 | 24.96111 | 295 ft | 123 kts | 156° |
| 2026-05-04 21:24 | 60.32613 | 24.96893 | 176 ft | 109 kts | 153° |
| 2026-05-04 21:25 | 60.32128 | 24.97369 | 155 ft | 45 kts | 154° |
| 2026-05-04 21:25 | 60.31880 | 24.97619 | 153 ft | 35 kts | 153° |
| 2026-05-04 21:25 | 60.31709 | 24.97710 | 153 ft | 21 kts | 205° |
| 2026-05-04 21:25 | 60.31661 | 24.97588 | 156 ft | 9 kts | 243° |
| 2026-05-04 21:26 | 60.31671 | 24.97515 | 158 ft | 4 kts | 312° |
| 2026-05-04 21:26 | 60.31692 | 24.97487 | 159 ft | 4 kts | 334° |
| 2026-05-04 21:26 | 60.31719 | 24.97458 | 159 ft | 5 kts | 330° |
| 2026-05-04 21:26 | 60.31753 | 24.97417 | 160 ft | 6 kts | 330° |
| 2026-05-04 21:27 | 60.31790 | 24.97377 | 161 ft | 6 kts | 335° |
| 2026-05-04 21:27 | 60.31837 | 24.97334 | 162 ft | 9 kts | 335° |
| 2026-05-04 21:27 | 60.31899 | 24.97268 | 162 ft | 11 kts | 333° |
| 2026-05-04 21:27 | 60.31975 | 24.97190 | 165 ft | 15 kts | 333° |
| 2026-05-04 21:28 | 60.32087 | 24.97072 | 166 ft | 21 kts | 333° |
| 2026-05-04 21:28 | 60.32229 | 24.96928 | 165 ft | 25 kts | 332° |
| 2026-05-04 21:28 | 60.32317 | 24.96831 | 166 ft | 5 kts | 308° |
| 2026-05-04 21:28 | 60.32296 | 24.96768 | 166 ft | 8 kts | 231° |
| 2026-05-04 21:29 | 60.32253 | 24.96673 | 167 ft | 11 kts | 228° |
| 2026-05-04 21:29 | 60.32187 | 24.96528 | 168 ft | 17 kts | 227° |
| 2026-05-04 21:29 | 60.32094 | 24.96326 | 168 ft | 21 kts | 227° |
| 2026-05-04 21:29 | 60.31999 | 24.96114 | 169 ft | 16 kts | 228° |
| 2026-05-04 21:30 | 60.31925 | 24.95950 | 170 ft | 16 kts | 227° |
| 2026-05-04 21:30 | 60.31840 | 24.95762 | 169 ft | 19 kts | 227° |
| 2026-05-04 21:30 | 60.31742 | 24.95546 | 171 ft | 22 kts | 228° |
| 2026-05-04 21:30 | 60.31630 | 24.95298 | 170 ft | 26 kts | 227° |
| 2026-05-04 21:31 | 60.31452 | 24.94973 | 168 ft | 9 kts | 172° |
| 2026-05-04 21:31 | 60.31402 | 24.95076 | 167 ft | 12 kts | 130° |
| 2026-05-04 21:31 | 60.31361 | 24.95155 | 167 ft | 13 kts | 138° |
| 2026-05-04 21:32 | 60.31265 | 24.95331 | 166 ft | 15 kts | 138° |
| 2026-05-04 21:32 | 60.31184 | 24.95482 | 166 ft | 13 kts | 137° |
| 2026-05-04 21:32 | 60.31162 | 24.95559 | 167 ft | 10 kts | 92° |
| 2026-05-04 21:32 | 60.31199 | 24.95676 | 167 ft | 11 kts | 47° |
| 2026-05-04 21:33 | 60.31233 | 24.95810 | 167 ft | 11 kts | 94° |
| 2026-05-04 21:33 | 60.31222 | 24.95896 | 167 ft | 1 kts | 105° |
| 2026-05-04 21:33 | 60.31219 | 24.95922 | 167 ft | 3 kts | 102° |
| 2026-05-04 21:33 | 60.31204 | 24.95975 | 167 ft | 6 kts | 142° |
| 2026-05-04 21:34 | 60.31182 | 24.96013 | 167 ft | 3 kts | 137° |
| 2026-05-04 21:34 | 60.31164 | 24.96046 | 167 ft | 2 kts | 139° |
| 2026-05-04 21:34 | 60.31155 | 24.96064 | 167 ft | 2 kts | 137° |
| 2026-05-04 21:34 | 60.31149 | 24.96075 | 167 ft | 1 kts | 137° |
| 2026-05-04 21:35 | 60.31146 | 24.96079 | 167 ft | 0 kts | 137° |
| 2026-05-04 21:35 | 60.31146 | 24.96080 | 167 ft | 0 kts | 137° |